Címlap Spotter Aktuális időjárásjelentés, előrejelzés Debrecen Airport (METAR/TAF LHDC/DEB)

Aktuális időjárásjelentés, előrejelzés Debrecen Airport (METAR/TAF LHDC/DEB)

Aktuális szöveges időjárásjelentés / METAR DEB/LHDC és 24 órás szöveges időjárás-előrejelzés / TAF DEB/LHDCDebrecen Airport

Available data for LHDC from the past 6 hours
Metar
LHDC 160615Z 18004KT 8000 NSC M03/M04 Q1032 NOSIG

06:15 UTC

Wind: 180° 4kt

Visibility: 8000 m

Sky:

Temp: -3 deg C / 26.6 deg F

Dewpoint: -4 deg C / 24.8 deg F

Pressure: 1032 hPa

TAF
TAF LHDC 160515Z 1606/1615 20005KT 5000 BR NSC PROB40 1606/1609 1500 FZBCFG BR PROB30 TEMPO 1606/1608 0600 FZFG

Európa műholdkép

Data is taken from the National Weather Service at NOAA. Satelite image by AustroControl & Meteo-Mc. Only for spotters, do not use for real flight!

A METAR és a TAF adatok a National Weather Service adatbázisából származnak. Az oldalon közölt adatok tájékoztató jellegűek, az oldal üzemeltetője nem vállal felelősséget ezek esetleges pontatlanságáért. Ne használd valós repüléshez!

Néhány hasznos infó, mielőtt repülőre szállsz